createdAt,value
2017-01-12T00:00:43.811Z,21.12
2017-01-12T00:01:44.231Z,21.12
2017-01-12T00:02:44.261Z,21.07
2017-01-12T00:03:43.496Z,21.09
2017-01-12T00:04:43.917Z,21.1
2017-01-12T00:05:43.946Z,21.06
2017-01-12T00:06:43.971Z,21.12
2017-01-12T00:07:44.395Z,21.03
2017-01-12T00:08:44.423Z,21.09
2017-01-12T00:09:44.052Z,21.07
2017-01-12T00:10:44.072Z,21.03
2017-01-12T00:11:43.708Z,21.03
2017-01-12T00:12:44.129Z,20.98
2017-01-12T00:13:44.162Z,20.99
2017-01-12T00:14:44.184Z,20.98
2017-01-12T00:15:43.819Z,21.09
2017-01-12T00:16:44.243Z,21.03
2017-01-12T00:17:44.268Z,21.09
2017-01-12T00:18:44.288Z,20.95
2017-01-12T00:19:44.717Z,21.1
2017-01-12T00:20:44.346Z,21.04
2017-01-12T00:21:43.978Z,20.92
2017-01-12T00:22:44.403Z,20.92
2017-01-12T00:23:44.427Z,20.97
2017-01-12T00:24:44.456Z,20.99
2017-01-12T00:25:44.484Z,20.95
2017-01-12T00:26:44.904Z,20.92
2017-01-12T00:27:44.129Z,20.97
2017-01-12T00:28:44.958Z,20.97
2017-01-12T00:29:44.583Z,20.92
2017-01-12T00:30:45.008Z,20.89
2017-01-12T00:31:44.635Z,20.89
2017-01-12T00:32:45.061Z,20.98
2017-01-12T00:33:45.093Z,20.94
2017-01-12T00:34:44.321Z,20.98
2017-01-12T00:35:44.750Z,20.95
2017-01-12T00:36:44.770Z,20.98
2017-01-12T00:37:44.407Z,20.98
2017-01-12T00:38:44.823Z,20.92
2017-01-12T00:39:44.856Z,20.89
2017-01-12T00:40:44.485Z,20.92
2017-01-12T00:41:44.905Z,20.84
2017-01-12T00:42:45.330Z,20.87
2017-01-12T00:43:44.959Z,20.85
2017-01-12T00:44:44.595Z,20.89
2017-01-12T00:45:45.408Z,20.87
2017-01-12T00:46:44.644Z,20.89
2017-01-12T00:47:44.669Z,20.88
2017-01-12T00:48:45.097Z,20.92
2017-01-12T00:49:44.731Z,20.87
2017-01-12T00:50:45.152Z,20.88
2017-01-12T00:51:45.571Z,20.91
2017-01-12T00:52:45.212Z,20.88
2017-01-12T00:53:45.230Z,20.87
2017-01-12T00:54:44.857Z,20.84
2017-01-12T00:55:44.890Z,20.84
2017-01-12T00:56:44.911Z,20.84
2017-01-12T00:57:45.336Z,20.85
2017-01-12T00:58:44.968Z,20.89
2017-01-12T00:59:45.789Z,20.85
2017-01-12T01:00:45.810Z,20.84
2017-01-12T01:01:45.446Z,20.82
2017-01-12T01:02:45.071Z,20.85
2017-01-12T01:03:45.114Z,20.84
2017-01-12T01:04:45.525Z,20.72
2017-01-12T01:05:45.555Z,20.74
2017-01-12T01:06:45.180Z,20.85
2017-01-12T01:07:45.615Z,20.79
2017-01-12T01:08:46.024Z,20.8
2017-01-12T01:09:45.659Z,20.84
2017-01-12T01:10:45.288Z,20.72
2017-01-12T01:11:45.320Z,20.69
2017-01-12T01:12:45.738Z,20.77
2017-01-12T01:13:46.167Z,20.73
2017-01-12T01:14:45.396Z,20.74
2017-01-12T01:15:45.821Z,20.72
2017-01-12T01:16:46.242Z,20.77
2017-01-12T01:17:45.875Z,20.7
2017-01-12T01:18:46.294Z,20.66
2017-01-12T01:19:45.923Z,20.66
2017-01-12T01:20:45.558Z,20.76
2017-01-12T01:21:46.377Z,20.8
2017-01-12T01:22:46.001Z,20.62
2017-01-12T01:23:45.635Z,20.66
2017-01-12T01:24:46.063Z,20.58
2017-01-12T01:25:46.479Z,20.73
2017-01-12T01:26:46.116Z,20.74
2017-01-12T01:27:45.745Z,20.74
2017-01-12T01:28:46.169Z,20.7
2017-01-12T01:29:46.190Z,20.61
2017-01-12T01:30:45.823Z,20.62
2017-01-12T01:31:46.247Z,20.62
2017-01-12T01:32:46.272Z,20.73
2017-01-12T01:33:45.905Z,20.61
2017-01-12T01:34:46.330Z,20.69
2017-01-12T01:35:46.750Z,20.62
2017-01-12T01:36:45.987Z,20.69
2017-01-12T01:37:46.795Z,20.66
2017-01-12T01:38:46.041Z,20.74
2017-01-12T01:39:46.069Z,20.72
2017-01-12T01:40:46.490Z,20.72
2017-01-12T01:41:46.515Z,20.59
2017-01-12T01:42:46.542Z,20.59
2017-01-12T01:43:46.169Z,20.66
2017-01-12T01:44:46.205Z,20.61
2017-01-12T01:45:46.224Z,20.62
2017-01-12T01:46:47.051Z,20.57
2017-01-12T01:47:47.072Z,20.64
2017-01-12T01:48:46.709Z,20.64
2017-01-12T01:49:46.726Z,20.64
2017-01-12T01:50:47.151Z,20.55
2017-01-12T01:51:47.179Z,20.61
2017-01-12T01:52:46.816Z,20.57
2017-01-12T01:53:46.441Z,20.62
2017-01-12T01:54:46.874Z,20.66
2017-01-12T01:55:46.923Z,20.62
2017-01-12T01:56:46.517Z,20.66
2017-01-12T01:57:47.336Z,20.57
2017-01-12T01:58:47.370Z,20.61
2017-01-12T01:59:47.394Z,20.58
2017-01-12T02:00:47.419Z,20.57
2017-01-12T02:01:47.052Z,20.58
2017-01-12T02:02:46.677Z,20.55
2017-01-12T02:03:47.101Z,20.52
2017-01-12T02:04:47.131Z,20.61
2017-01-12T02:05:46.760Z,20.5
2017-01-12T02:06:46.788Z,20.55
2017-01-12T02:07:47.209Z,20.5
2017-01-12T02:08:47.634Z,20.54
2017-01-12T02:09:46.871Z,20.54
2017-01-12T02:10:46.899Z,20.58
2017-01-12T02:11:46.924Z,20.54
2017-01-12T02:12:47.733Z,20.57
2017-01-12T02:13:47.770Z,20.5
2017-01-12T02:14:47.007Z,20.5
2017-01-12T02:15:47.432Z,20.58
2017-01-12T02:16:47.844Z,20.57
2017-01-12T02:17:47.473Z,20.52
2017-01-12T02:18:47.503Z,20.48
2017-01-12T02:19:47.535Z,20.55
2017-01-12T02:20:47.163Z,20.41
2017-01-12T02:21:47.186Z,20.48
2017-01-12T02:22:47.626Z,20.43
2017-01-12T02:23:47.646Z,20.43
2017-01-12T02:24:48.063Z,20.48
2017-01-12T02:25:47.692Z,20.47
2017-01-12T02:26:47.720Z,20.5
2017-01-12T02:27:47.745Z,20.47
2017-01-12T02:28:47.370Z,20.52
2017-01-12T02:29:47.823Z,20.54
2017-01-12T02:30:47.832Z,20.41
2017-01-12T02:31:47.470Z,20.41
2017-01-12T02:32:47.877Z,20.51
2017-01-12T02:33:47.897Z,20.42
2017-01-12T02:34:47.534Z,20.54
2017-01-12T02:35:48.347Z,20.43
2017-01-12T02:36:47.992Z,20.47
2017-01-12T02:37:47.620Z,20.47
2017-01-12T02:38:48.037Z,20.48
2017-01-12T02:39:48.063Z,20.38
2017-01-12T02:40:48.548Z,20.47
2017-01-12T02:41:48.516Z,20.5
2017-01-12T02:42:48.541Z,20.43
2017-01-12T02:43:48.574Z,20.38
2017-01-12T02:44:47.790Z,20.39
2017-01-12T02:45:48.228Z,20.42
2017-01-12T02:46:48.648Z,20.41
2017-01-12T02:47:48.280Z,20.42
2017-01-12T02:48:47.910Z,20.38
2017-01-12T02:49:48.331Z,20.38
2017-01-12T02:50:48.763Z,20.36
2017-01-12T02:51:48.380Z,20.39
2017-01-12T02:52:48.809Z,20.39
2017-01-12T02:53:48.449Z,20.36
2017-01-12T02:54:48.067Z,20.41
2017-01-12T02:55:48.492Z,20.36
2017-01-12T02:56:48.128Z,20.32
2017-01-12T02:57:48.941Z,20.33
2017-01-12T02:58:48.970Z,20.36
2017-01-12T02:59:48.594Z,20.42
2017-01-12T03:00:48.231Z,20.39
2017-01-12T03:01:48.256Z,20.35
2017-01-12T03:02:48.280Z,20.32
2017-01-12T03:03:48.709Z,20.35
2017-01-12T03:04:48.730Z,20.35
2017-01-12T03:05:49.151Z,20.39
2017-01-12T03:06:49.184Z,20.35
2017-01-12T03:07:48.812Z,20.36
2017-01-12T03:08:48.837Z,20.36
2017-01-12T03:09:48.470Z,20.33
2017-01-12T03:10:49.286Z,20.39
2017-01-12T03:11:48.919Z,20.32
2017-01-12T03:12:48.548Z,20.36
2017-01-12T03:13:48.973Z,20.36
2017-01-12T03:14:48.998Z,20.33
2017-01-12T03:15:49.018Z,20.29
2017-01-12T03:16:48.654Z,20.36
2017-01-12T03:17:48.680Z,20.39
2017-01-12T03:18:49.501Z,20.33
2017-01-12T03:19:49.129Z,20.28
2017-01-12T03:20:49.154Z,20.29
2017-01-12T03:21:49.188Z,20.38
2017-01-12T03:22:49.212Z,20.32
2017-01-12T03:23:48.836Z,20.32
2017-01-12T03:24:48.861Z,20.29
2017-01-12T03:25:49.282Z,20.26
2017-01-12T03:26:48.906Z,20.24
2017-01-12T03:27:49.347Z,20.35
2017-01-12T03:28:48.972Z,20.33
2017-01-12T03:29:49.397Z,20.31
2017-01-12T03:30:49.818Z,20.32
2017-01-12T03:31:49.838Z,20.23
2017-01-12T03:32:49.495Z,20.24
2017-01-12T03:33:49.104Z,20.28
2017-01-12T03:34:49.520Z,20.32
2017-01-12T03:35:49.153Z,20.26
2017-01-12T03:36:49.183Z,20.28
2017-01-12T03:37:49.601Z,20.29
2017-01-12T03:38:49.633Z,20.35
2017-01-12T03:39:50.057Z,20.28
2017-01-12T03:40:49.681Z,20.2
2017-01-12T03:41:49.706Z,20.26
2017-01-12T03:42:49.734Z,20.28
2017-01-12T03:43:49.767Z,20.31
2017-01-12T03:44:50.188Z,20.32
2017-01-12T03:45:49.821Z,20.26
2017-01-12T03:46:49.854Z,20.23
2017-01-12T03:47:49.883Z,20.21
2017-01-12T03:48:50.295Z,20.29
2017-01-12T03:49:49.528Z,20.26
2017-01-12T03:50:49.957Z,20.16
2017-01-12T03:51:49.581Z,20.18
2017-01-12T03:52:49.612Z,20.18
2017-01-12T03:53:50.027Z,20.21
2017-01-12T03:54:49.660Z,20.17
2017-01-12T03:55:49.689Z,20.18
2017-01-12T03:56:50.511Z,20.18
2017-01-12T03:57:50.138Z,20.16
2017-01-12T03:58:50.170Z,20.21
2017-01-12T03:59:49.791Z,20.2
2017-01-12T04:00:50.224Z,20.26
2017-01-12T04:01:49.845Z,20.23
2017-01-12T04:02:50.271Z,20.17
2017-01-12T04:03:50.686Z,20.23
2017-01-12T04:04:50.720Z,20.16
2017-01-12T04:05:50.352Z,20.21
2017-01-12T04:06:50.773Z,20.17
2017-01-12T04:07:50.798Z,20.17
2017-01-12T04:08:50.431Z,20.16
2017-01-12T04:09:50.068Z,20.16
2017-01-12T04:10:50.881Z,20.13
2017-01-12T04:11:50.510Z,20.2
2017-01-12T04:12:50.934Z,20.21
2017-01-12T04:13:50.559Z,20.14
2017-01-12T04:14:50.595Z,20.14
2017-01-12T04:15:50.616Z,20.18
2017-01-12T04:16:50.241Z,20.17
2017-01-12T04:17:50.670Z,20.18
2017-01-12T04:18:50.691Z,20.14
2017-01-12T04:19:51.117Z,20.18
2017-01-12T04:20:50.357Z,20.14
2017-01-12T04:21:50.773Z,20.16
2017-01-12T04:22:50.406Z,20.1
2017-01-12T04:23:50.436Z,20.14
2017-01-12T04:24:50.451Z,20.16
2017-01-12T04:25:50.880Z,20.2
2017-01-12T04:26:50.905Z,20.17
2017-01-12T04:27:51.329Z,20.21
2017-01-12T04:28:50.959Z,20.13
2017-01-12T04:29:50.984Z,20.18
2017-01-12T04:30:51.008Z,20.13
2017-01-12T04:31:51.065Z,20.13
2017-01-12T04:32:50.670Z,20.18
2017-01-12T04:33:51.095Z,20.05
2017-01-12T04:34:50.751Z,20.17
2017-01-12T04:35:51.149Z,20.13
2017-01-12T04:36:51.178Z,20.14
2017-01-12T04:37:51.197Z,20.03
2017-01-12T04:38:51.626Z,20.06
2017-01-12T04:39:51.247Z,20.11
2017-01-12T04:40:50.872Z,20.03
2017-01-12T04:41:51.304Z,20.05
2017-01-12T04:42:51.325Z,20.11
2017-01-12T04:43:51.754Z,20.11
2017-01-12T04:44:50.995Z,20.03
2017-01-12T04:45:51.807Z,20.02
2017-01-12T04:46:51.435Z,20.03
2017-01-12T04:47:51.460Z,20.01
2017-01-12T04:48:51.485Z,20.03
2017-01-12T04:49:51.514Z,20.08
2017-01-12T04:50:51.534Z,20.05
2017-01-12T04:51:51.566Z,20.05
2017-01-12T04:52:52.000Z,19.99
2017-01-12T04:53:51.621Z,20.1
2017-01-12T04:54:51.645Z,20.01
2017-01-12T04:55:51.273Z,20.05
2017-01-12T04:56:51.290Z,20.03
2017-01-12T04:57:51.728Z,20.1
2017-01-12T04:58:51.756Z,20.08
2017-01-12T04:59:51.777Z,20.08
2017-01-12T05:00:52.198Z,20.03
2017-01-12T05:01:52.218Z,20.1
2017-01-12T05:02:51.462Z,20.06
2017-01-12T05:03:51.483Z,20.13
2017-01-12T05:04:51.512Z,20.05
2017-01-12T05:05:52.329Z,20.03
2017-01-12T05:06:51.572Z,20.08
2017-01-12T05:07:51.986Z,20.02
2017-01-12T05:08:52.015Z,19.99
2017-01-12T05:09:52.440Z,20.05
2017-01-12T05:10:52.064Z,20.06
2017-01-12T05:11:51.697Z,20.05
2017-01-12T05:12:52.514Z,20.08
2017-01-12T05:13:51.750Z,19.99
2017-01-12T05:14:52.171Z,20.03
2017-01-12T05:15:51.832Z,19.96
2017-01-12T05:16:52.226Z,20.01
2017-01-12T05:17:52.258Z,20.03
2017-01-12T05:18:52.278Z,20.02
2017-01-12T05:19:51.912Z,20.05
2017-01-12T05:20:51.939Z,20.05
2017-01-12T05:21:51.964Z,20.06
2017-01-12T05:22:52.384Z,20.05
2017-01-12T05:23:52.014Z,20.03
2017-01-12T05:24:52.439Z,20.02
2017-01-12T05:25:52.464Z,20.01
2017-01-12T05:26:52.888Z,20.02
2017-01-12T05:27:52.508Z,20.05
2017-01-12T05:28:52.146Z,19.99
2017-01-12T05:29:52.174Z,20.11
2017-01-12T05:30:52.595Z,20.03
2017-01-12T05:31:52.228Z,20.06
2017-01-12T05:32:53.045Z,20.01
2017-01-12T05:33:52.674Z,20.06
2017-01-12T05:34:52.702Z,20.02
2017-01-12T05:35:52.327Z,20.11
2017-01-12T05:36:52.360Z,20.14
2017-01-12T05:37:53.176Z,20.17
2017-01-12T05:38:52.809Z,20.17
2017-01-12T05:39:53.234Z,20.17
2017-01-12T05:40:52.859Z,20.23
2017-01-12T05:41:53.283Z,20.14
2017-01-12T05:42:52.908Z,20.16
2017-01-12T05:43:52.537Z,20.18
2017-01-12T05:44:52.965Z,20.24
2017-01-12T05:45:52.587Z,20.17
2017-01-12T05:46:52.623Z,20.28
2017-01-12T05:47:53.044Z,20.28
2017-01-12T05:48:53.472Z,20.32
2017-01-12T05:49:53.089Z,20.36
2017-01-12T05:50:53.509Z,20.36
2017-01-12T05:51:53.150Z,20.35
2017-01-12T05:52:53.174Z,20.38
2017-01-12T05:53:53.224Z,20.36
2017-01-12T05:54:52.828Z,20.38
2017-01-12T05:55:52.849Z,20.5
2017-01-12T05:56:52.884Z,20.52
2017-01-12T05:57:53.306Z,20.39
2017-01-12T05:58:53.727Z,20.39
2017-01-12T05:59:53.360Z,20.52
2017-01-12T06:00:53.780Z,20.57
2017-01-12T06:01:53.409Z,20.47
2017-01-12T06:02:53.433Z,20.59
2017-01-12T06:03:53.466Z,20.58
2017-01-12T06:04:53.487Z,20.57
2017-01-12T06:05:53.124Z,20.59
2017-01-12T06:06:53.540Z,20.58
2017-01-12T06:07:53.569Z,20.58
2017-01-12T06:08:53.198Z,20.67
2017-01-12T06:09:53.619Z,20.61
2017-01-12T06:10:54.048Z,20.66
2017-01-12T06:11:53.276Z,20.66
2017-01-12T06:12:53.709Z,20.7
2017-01-12T06:13:53.334Z,20.69
2017-01-12T06:14:53.762Z,20.69
2017-01-12T06:15:54.178Z,20.7
2017-01-12T06:16:54.208Z,20.7
2017-01-12T06:17:53.436Z,20.66
2017-01-12T06:18:53.462Z,20.7
2017-01-12T06:19:53.886Z,20.73
2017-01-12T06:20:53.915Z,20.74
2017-01-12T06:21:53.549Z,20.77
2017-01-12T06:22:53.572Z,20.77
2017-01-12T06:23:53.997Z,20.87
2017-01-12T06:24:54.022Z,20.8
2017-01-12T06:25:54.470Z,20.8
2017-01-12T06:26:53.679Z,20.91
2017-01-12T06:27:54.103Z,20.89
2017-01-12T06:28:53.728Z,20.89
2017-01-12T06:29:54.553Z,20.87
2017-01-12T06:30:54.186Z,20.91
2017-01-12T06:31:53.803Z,20.95
2017-01-12T06:32:54.231Z,20.94
2017-01-12T06:33:54.656Z,20.98
2017-01-12T06:34:54.685Z,20.91
2017-01-12T06:35:54.336Z,20.92
2017-01-12T06:36:54.738Z,20.98
2017-01-12T06:37:54.363Z,20.98
2017-01-12T06:38:54.404Z,20.94
2017-01-12T06:39:54.425Z,20.99
2017-01-12T06:40:54.854Z,21.04
2017-01-12T06:41:54.474Z,21.09
2017-01-12T06:42:54.897Z,21.06
2017-01-12T06:43:54.131Z,21.03
2017-01-12T06:44:54.559Z,21.03
2017-01-12T06:45:54.184Z,21.07
2017-01-12T06:46:54.205Z,21.09
2017-01-12T06:47:54.633Z,21.1
2017-01-12T06:48:54.657Z,21.09
2017-01-12T06:49:55.082Z,21.12
2017-01-12T06:50:54.314Z,21.12
2017-01-12T06:51:55.139Z,21.13
2017-01-12T06:52:55.164Z,21.16
2017-01-12T06:53:54.788Z,21.19
2017-01-12T06:54:54.429Z,21.1
2017-01-12T06:55:55.245Z,21.1
2017-01-12T06:56:54.874Z,21.13
2017-01-12T06:57:54.899Z,21.14
2017-01-12T06:58:54.927Z,21.13
2017-01-12T06:59:54.555Z,21.17
2017-01-12T07:00:54.985Z,21.13
2017-01-12T07:01:55.402Z,21.13
2017-01-12T07:02:55.025Z,21.16
2017-01-12T07:03:54.654Z,21.12
2017-01-12T07:04:55.091Z,21.09
2017-01-12T07:05:55.112Z,21.17
2017-01-12T07:06:54.744Z,21.14
2017-01-12T07:07:54.765Z,21.16
2017-01-12T07:08:54.798Z,21.16
2017-01-12T07:09:55.614Z,21.19
2017-01-12T07:10:55.250Z,21.16
2017-01-12T07:11:55.671Z,21.19
2017-01-12T07:12:55.699Z,21.19
2017-01-12T07:13:55.720Z,21.14
2017-01-12T07:14:55.345Z,21.19
2017-01-12T07:15:55.386Z,21.16
2017-01-12T07:16:55.406Z,21.16
2017-01-12T07:17:55.439Z,21.16
2017-01-12T07:18:55.456Z,21.17
2017-01-12T07:19:55.485Z,21.22
2017-01-12T07:20:55.514Z,21.17
2017-01-12T07:21:55.547Z,21.21
2017-01-12T07:22:55.571Z,21.16
2017-01-12T07:23:55.196Z,21.16
2017-01-12T07:24:55.621Z,21.29
2017-01-12T07:25:55.255Z,21.27
2017-01-12T07:26:55.674Z,21.17
2017-01-12T07:27:55.700Z,21.17
2017-01-12T07:28:55.339Z,21.22
2017-01-12T07:29:55.753Z,21.28
2017-01-12T07:30:55.786Z,21.22
2017-01-12T07:31:55.416Z,21.21
2017-01-12T07:32:55.447Z,21.21
2017-01-12T07:33:55.863Z,21.19
2017-01-12T07:34:56.289Z,21.17
2017-01-12T07:35:55.522Z,21.16
2017-01-12T07:36:55.550Z,21.25
2017-01-12T07:37:55.975Z,21.28
2017-01-12T07:38:56.396Z,21.19
2017-01-12T07:39:56.423Z,21.25
2017-01-12T07:40:56.049Z,21.22
2017-01-12T07:41:55.690Z,21.24
2017-01-12T07:42:56.499Z,21.25
2017-01-12T07:43:56.132Z,21.21
2017-01-12T07:44:56.556Z,21.17
2017-01-12T07:45:55.800Z,21.17
2017-01-12T07:46:55.818Z,21.22
2017-01-12T07:47:56.243Z,21.16
2017-01-12T07:48:56.268Z,21.19
2017-01-12T07:49:55.904Z,21.21
2017-01-12T07:50:55.925Z,21.22
2017-01-12T07:51:56.354Z,21.14
2017-01-12T07:52:56.764Z,21.16
2017-01-12T07:53:56.405Z,21.16
2017-01-12T07:54:56.029Z,21.16
2017-01-12T07:55:56.055Z,21.1
2017-01-12T07:56:56.103Z,21.16
2017-01-12T07:57:56.514Z,21.13
2017-01-12T07:58:56.932Z,21.13
2017-01-12T07:59:56.169Z,21.1
2017-01-12T08:00:56.586Z,21.1
2017-01-12T08:01:56.223Z,21.09
2017-01-12T08:02:56.675Z,21.06
2017-01-12T08:03:56.672Z,21.12
2017-01-12T08:04:56.305Z,21.07
2017-01-12T08:05:57.121Z,21.06
2017-01-12T08:06:57.155Z,21.06
2017-01-12T08:07:56.783Z,21.03
2017-01-12T08:08:56.814Z,21.06
2017-01-12T08:09:56.440Z,20.99
2017-01-12T08:10:56.473Z,20.97
2017-01-12T08:11:56.882Z,21.06
2017-01-12T08:12:56.911Z,21.09
2017-01-12T08:13:57.347Z,21.06
2017-01-12T08:14:56.972Z,20.97
2017-01-12T08:15:57.389Z,20.94
2017-01-12T08:16:57.022Z,21.04
2017-01-12T08:17:56.655Z,20.95
2017-01-12T08:18:57.080Z,20.99
2017-01-12T08:19:57.104Z,20.97
2017-01-12T08:20:56.733Z,20.98
2017-01-12T08:21:57.153Z,20.98
2017-01-12T08:22:57.187Z,20.98
2017-01-12T08:23:57.215Z,20.92
2017-01-12T08:24:57.644Z,20.94
2017-01-12T08:25:57.264Z,20.88
2017-01-12T08:26:56.894Z,20.91
2017-01-12T08:27:56.922Z,20.85
2017-01-12T08:28:57.751Z,20.98
2017-01-12T08:29:56.971Z,20.98
2017-01-12T08:30:57.801Z,21.01
2017-01-12T08:31:57.821Z,20.99
2017-01-12T08:32:57.455Z,20.84
2017-01-12T08:33:57.876Z,20.88
2017-01-12T08:34:57.507Z,20.85
2017-01-12T08:35:57.132Z,20.89
2017-01-12T08:36:57.557Z,20.91
2017-01-12T08:37:57.190Z,20.89
2017-01-12T08:38:57.619Z,20.89
2017-01-12T08:39:57.244Z,20.88
2017-01-12T08:40:57.665Z,20.84
2017-01-12T08:41:57.698Z,20.87
2017-01-12T08:42:58.115Z,20.87
2017-01-12T08:43:58.147Z,20.92
2017-01-12T08:44:57.375Z,20.88
2017-01-12T08:45:57.824Z,20.89
2017-01-12T08:46:57.831Z,20.72
2017-01-12T08:47:57.462Z,20.87
2017-01-12T08:48:57.487Z,20.89
2017-01-12T08:49:57.912Z,20.88
2017-01-12T08:50:57.541Z,20.89
2017-01-12T08:51:57.961Z,20.76
2017-01-12T08:52:57.990Z,20.82
2017-01-12T08:53:57.615Z,20.8
2017-01-12T08:54:58.047Z,20.79
2017-01-12T08:55:58.072Z,20.79
2017-01-12T08:56:58.493Z,20.74
2017-01-12T08:57:58.127Z,20.76
2017-01-12T08:58:57.763Z,20.74
2017-01-12T08:59:58.172Z,20.76
2017-01-12T09:00:58.604Z,20.76
2017-01-12T09:01:57.833Z,20.72
2017-01-12T09:02:58.254Z,20.79
2017-01-12T09:03:57.890Z,20.7
2017-01-12T09:04:57.916Z,20.72
2017-01-12T09:05:58.737Z,20.7
2017-01-12T09:06:58.374Z,20.8
2017-01-12T09:07:58.786Z,20.69
2017-01-12T09:08:58.819Z,20.73
2017-01-12T09:09:58.843Z,20.76
2017-01-12T09:10:58.080Z,20.76
2017-01-12T09:11:58.105Z,20.67
2017-01-12T09:12:58.925Z,20.7
2017-01-12T09:13:58.555Z,20.66
2017-01-12T09:14:58.587Z,20.62
2017-01-12T09:15:58.600Z,20.72
2017-01-12T09:16:59.035Z,20.62
2017-01-12T09:17:58.269Z,20.74
2017-01-12T09:18:58.290Z,20.64
2017-01-12T09:19:58.715Z,20.67
2017-01-12T09:20:58.744Z,20.74
2017-01-12T09:21:58.768Z,20.67
2017-01-12T09:22:58.801Z,20.67
2017-01-12T09:23:59.214Z,20.66
2017-01-12T09:24:59.251Z,20.66
2017-01-12T09:25:59.272Z,20.7
2017-01-12T09:26:58.905Z,20.61
2017-01-12T09:27:58.533Z,20.7
2017-01-12T09:28:58.970Z,20.64
2017-01-12T09:29:58.983Z,20.59
2017-01-12T09:30:59.012Z,20.69
2017-01-12T09:31:59.036Z,20.61
2017-01-12T09:32:58.665Z,20.64
2017-01-12T09:33:58.689Z,20.64
2017-01-12T09:34:58.722Z,20.69
2017-01-12T09:35:59.143Z,20.62
2017-01-12T09:36:59.188Z,20.64
2017-01-12T09:37:59.197Z,20.66
2017-01-12T09:38:58.826Z,20.66
2017-01-12T09:39:59.247Z,20.61
2017-01-12T09:40:59.279Z,20.61
2017-01-12T09:41:59.304Z,20.64
2017-01-12T09:42:59.336Z,20.7
2017-01-12T09:43:59.757Z,20.62
2017-01-12T09:44:58.982Z,20.62
2017-01-12T09:45:59.015Z,20.62
2017-01-12T09:46:59.444Z,20.67
2017-01-12T09:47:59.076Z,20.64
2017-01-12T09:48:59.889Z,20.67
2017-01-12T09:49:59.921Z,20.64
2017-01-12T09:50:59.947Z,20.67
2017-01-12T09:51:59.571Z,20.59
2017-01-12T09:52:59.996Z,20.66
2017-01-12T09:53:59.233Z,20.64
2017-01-12T09:54:59.657Z,20.66
2017-01-12T09:56:00.066Z,20.64
2017-01-12T09:56:59.702Z,20.57
2017-01-12T09:58:00.128Z,20.59
2017-01-12T09:59:00.153Z,20.66
2017-01-12T09:59:59.385Z,20.52
2017-01-12T10:00:59.810Z,20.59
2017-01-12T10:01:59.442Z,20.59
2017-01-12T10:02:59.864Z,20.58
2017-01-12T10:03:59.893Z,20.62
2017-01-12T10:04:59.521Z,20.59
2017-01-12T10:06:00.342Z,20.55
2017-01-12T10:07:00.366Z,20.55
2017-01-12T10:07:59.999Z,20.62
2017-01-12T10:09:00.040Z,20.64
2017-01-12T10:10:00.457Z,20.57
2017-01-12T10:11:00.478Z,20.54
2017-01-12T10:12:00.102Z,20.57
2017-01-12T10:12:59.735Z,20.52
2017-01-12T10:14:00.168Z,20.58
2017-01-12T10:15:00.581Z,20.58
2017-01-12T10:15:59.813Z,20.54
2017-01-12T10:17:00.234Z,20.59
2017-01-12T10:18:00.266Z,20.59
2017-01-12T10:18:59.899Z,20.55
2017-01-12T10:20:00.320Z,20.55
2017-01-12T10:21:00.345Z,20.55
2017-01-12T10:21:59.978Z,20.57
2017-01-12T10:23:00.402Z,20.64
2017-01-12T10:24:00.819Z,20.57
2017-01-12T10:25:00.864Z,20.5
2017-01-12T10:26:00.084Z,20.64
2017-01-12T10:27:00.509Z,20.58
2017-01-12T10:28:00.529Z,20.55
2017-01-12T10:29:00.559Z,20.62
2017-01-12T10:30:00.586Z,20.61
2017-01-12T10:31:00.612Z,20.62
2017-01-12T10:32:01.033Z,20.57
2017-01-12T10:33:00.661Z,20.55
2017-01-12T10:34:00.311Z,20.61
2017-01-12T10:35:01.119Z,20.55
2017-01-12T10:36:00.346Z,20.52
2017-01-12T10:37:00.376Z,20.55
2017-01-12T10:38:01.229Z,20.5
2017-01-12T10:39:01.225Z,20.54
2017-01-12T10:40:01.242Z,20.59
2017-01-12T10:41:00.883Z,20.57
2017-01-12T10:42:00.904Z,20.54
2017-01-12T10:43:00.936Z,20.58
2017-01-12T10:44:00.957Z,20.55
2017-01-12T10:45:00.982Z,20.55
2017-01-12T10:46:00.613Z,20.58
2017-01-12T10:47:01.431Z,20.57
2017-01-12T10:48:01.468Z,20.55
2017-01-12T10:49:01.092Z,20.55
2017-01-12T10:50:01.513Z,20.51
2017-01-12T10:51:00.749Z,20.58
2017-01-12T10:52:01.575Z,20.51
2017-01-12T10:53:00.803Z,20.61
2017-01-12T10:54:00.828Z,20.52
2017-01-12T10:55:00.858Z,20.51
2017-01-12T10:56:00.909Z,20.54
2017-01-12T10:57:01.702Z,20.58
2017-01-12T10:58:00.930Z,20.55
2017-01-12T10:59:01.359Z,20.48
2017-01-12T11:00:01.388Z,20.58
2017-01-12T11:01:01.805Z,20.59
2017-01-12T11:02:01.037Z,20.54
2017-01-12T11:03:01.066Z,20.58
2017-01-12T11:04:01.887Z,20.58
2017-01-12T11:05:01.514Z,20.51
2017-01-12T11:06:01.551Z,20.57
2017-01-12T11:07:01.967Z,20.57
2017-01-12T11:08:01.989Z,20.62
2017-01-12T11:09:01.621Z,20.64
2017-01-12T11:10:01.649Z,20.62
2017-01-12T11:11:01.674Z,20.61
2017-01-12T11:12:01.706Z,20.58
2017-01-12T11:13:01.731Z,20.67
2017-01-12T11:14:01.363Z,20.62
2017-01-12T11:15:01.776Z,20.59
2017-01-12T11:16:01.809Z,20.64
2017-01-12T11:17:01.837Z,20.62
2017-01-12T11:18:01.862Z,20.61
2017-01-12T11:19:01.486Z,20.66
2017-01-12T11:20:01.920Z,20.73
2017-01-12T11:21:02.335Z,20.76
2017-01-12T11:22:01.560Z,20.64
2017-01-12T11:23:01.592Z,20.69
2017-01-12T11:24:01.621Z,20.58
2017-01-12T11:25:02.448Z,20.64
2017-01-12T11:26:02.077Z,20.66
2017-01-12T11:27:01.708Z,20.59
2017-01-12T11:28:01.782Z,20.5
2017-01-12T11:29:02.139Z,20.39
2017-01-12T11:30:01.787Z,20.36
2017-01-12T11:31:02.204Z,20.31
2017-01-12T11:32:02.239Z,20.18
2017-01-12T11:33:01.865Z,20.23
2017-01-12T11:34:01.890Z,20.06
2017-01-12T11:35:02.315Z,20.05
2017-01-12T11:36:02.348Z,20.01
2017-01-12T11:37:01.972Z,19.96
2017-01-12T11:38:02.392Z,19.92
2017-01-12T11:39:02.404Z,19.95
2017-01-12T11:40:02.045Z,19.96
2017-01-12T11:41:02.070Z,19.99
2017-01-12T11:42:02.895Z,19.95
2017-01-12T11:43:02.523Z,19.98
2017-01-12T11:44:02.557Z,19.95
2017-01-12T11:45:02.172Z,20.01
2017-01-12T11:46:02.601Z,19.96
2017-01-12T11:47:02.237Z,20.1
2017-01-12T11:48:02.654Z,20.11
2017-01-12T11:49:03.079Z,20.06
2017-01-12T11:50:02.315Z,20.03
2017-01-12T11:51:03.123Z,20.1
2017-01-12T11:52:02.763Z,20.14
2017-01-12T11:53:02.388Z,20.2
2017-01-12T11:54:02.821Z,20.16
2017-01-12T11:55:02.838Z,20.18
2017-01-12T11:56:02.469Z,20.21
2017-01-12T11:57:03.290Z,20.16
2017-01-12T11:58:03.315Z,20.16
2017-01-12T11:59:03.343Z,20.16
2017-01-12T12:00:02.576Z,20.24
2017-01-12T12:01:03.396Z,20.21
2017-01-12T12:02:03.028Z,20.14
2017-01-12T12:03:03.057Z,20.17
2017-01-12T12:04:03.078Z,20.18
2017-01-12T12:05:03.502Z,20.23
2017-01-12T12:06:03.522Z,20.2
2017-01-12T12:07:03.154Z,20.2
2017-01-12T12:08:03.183Z,20.26
2017-01-12T12:09:03.604Z,20.29
2017-01-12T12:10:03.632Z,20.23
2017-01-12T12:11:02.856Z,20.28
2017-01-12T12:12:03.685Z,20.24
2017-01-12T12:13:03.713Z,20.32
2017-01-12T12:14:02.962Z,20.29
2017-01-12T12:15:03.367Z,20.31
2017-01-12T12:16:03.416Z,20.39
2017-01-12T12:17:03.420Z,20.35
2017-01-12T12:18:03.444Z,20.39
2017-01-12T12:19:03.077Z,20.36
2017-01-12T12:20:03.910Z,20.35
2017-01-12T12:21:03.918Z,20.41
2017-01-12T12:22:03.547Z,20.42
2017-01-12T12:23:03.175Z,20.41
2017-01-12T12:24:04.012Z,20.41
2017-01-12T12:25:03.239Z,20.39
2017-01-12T12:26:03.263Z,20.5
2017-01-12T12:27:03.293Z,20.42
2017-01-12T12:28:04.115Z,20.55
2017-01-12T12:29:03.344Z,20.51
2017-01-12T12:30:03.760Z,20.54
2017-01-12T12:31:03.797Z,20.47
2017-01-12T12:32:03.833Z,20.51
2017-01-12T12:33:03.843Z,20.42
2017-01-12T12:34:03.880Z,20.51
2017-01-12T12:35:03.896Z,20.51
2017-01-12T12:36:03.925Z,20.43
2017-01-12T12:37:03.954Z,20.52
2017-01-12T12:38:03.595Z,20.54
2017-01-12T12:39:03.607Z,20.54
2017-01-12T12:40:04.060Z,20.51
2017-01-12T12:41:03.665Z,20.52
2017-01-12T12:42:04.090Z,20.52
2017-01-12T12:43:04.506Z,20.61
2017-01-12T12:44:04.543Z,20.62
2017-01-12T12:45:03.772Z,20.55
2017-01-12T12:46:04.200Z,20.55
2017-01-12T12:47:03.821Z,20.61
2017-01-12T12:48:03.845Z,20.51
2017-01-12T12:49:04.269Z,20.61
2017-01-12T12:50:03.913Z,20.54
2017-01-12T12:51:04.719Z,20.57
2017-01-12T12:52:03.969Z,20.59
2017-01-12T12:53:03.977Z,20.62
2017-01-12T12:54:04.406Z,20.62
2017-01-12T12:55:04.431Z,20.76